Airfield :
LOGIN :

Register | Disclaimer

   EN    FR    IT 

 










Legend :    VFR   Marginal VFR   IFR   Intensive IFR   Very Intensive IFR
Visi :
Ceiling :
>= 8 km
>= 3000ft
5 to 8 km
1000 to 3000 ft
1500m to 5 km
500 to 1000 ft
800 to 1500m
200 to 500 ft
< 800m
< 200 ft
Symbols :   Thunderstorms  Fog  Heavy snow  Heavy precipitations  Wind > 20 kt
SIGMETs :     Misc.  Thunderstorms  Icing  Turbulence  Mountain Waves  Volcanic Ashes







- Airport Elevation : 287 ft
- Download approach charts


LFRL - Lanveoc Poulmic

CURRENT METAR :
  • 251200Z AUTO 28016KT 9999 BKN022 BKN028 BKN035 13/07 Q1020 TEMPO 4000 SHRA BKN014 BECMG 29015G25KT

EXPIRED METARs :
  • 251130Z AUTO 28015KT 9999 FEW021 13/07 Q1020 TEMPO 4000 SHRA BKN014 BECMG 29015G25KT
  • 251100Z AUTO 28014KT 250V310 9999 SCT017 BKN022 BKN028 13/08 Q1020 BECMG 28015G25KT
  • 251030Z AUTO 28014KT 9999 BKN019 BKN024 BKN036 13/08 Q1020 BECMG 28015G25KT
  • 251000Z AUTO 28013KT 250V310 9999 BKN021 BKN026 BKN031 13/08 Q1019 BECMG 28015G25KT
  • 250930Z AUTO 26010KT 230V290 9999 FEW019 SCT041 OVC062 12/08 Q1019 BECMG 28015G25KT

TAF TAF LFRL
Valid from the 25 at 12:00 until the 25 at 21:00 UTC


251100Z 2512/2521 29015G25KT 9999 SCT020
PROB30
TEMPO 2512/2515 4000 SHRA BKN014
No reported NOTAMs for that airfield.



MET'MAP, your aeronautical weather chart ! - Copyright ORBIFLY December 2007 - Disclaimer

ORBIFLY MET'MAP TEAM :

Programming & Development : Alexandra Zaïnal
Concept & Development : Baudouin d'Aumeries
Co-Development & Prog : Marc-Olivier Méhu
Technical & hardware support : Manuel Goepfert

Contact : metmap@orbifly.com




SOURCES & CREDITS :

   NOAA